sensor_id;sensor_type;location;lat;lon;timestamp;P1;durP1;ratioP1;P2;durP2;ratioP2
13801;SDS011;6972;51.518;6.918;2023-03-14T00:02:30;4.60;;;2.00;;
13801;SDS011;6972;51.518;6.918;2023-03-14T00:04:56;8.63;;;2.45;;
13801;SDS011;6972;51.518;6.918;2023-03-14T00:07:22;7.72;;;2.00;;
13801;SDS011;6972;51.518;6.918;2023-03-14T00:09:49;8.65;;;1.90;;
13801;SDS011;6972;51.518;6.918;2023-03-14T00:12:15;7.43;;;2.10;;
13801;SDS011;6972;51.518;6.918;2023-03-14T00:14:42;6.80;;;2.03;;
13801;SDS011;6972;51.518;6.918;2023-03-14T00:17:13;9.88;;;2.95;;
13801;SDS011;6972;51.518;6.918;2023-03-14T00:19:49;5.20;;;1.65;;
13801;SDS011;6972;51.518;6.918;2023-03-14T00:22:18;10.80;;;2.47;;
13801;SDS011;6972;51.518;6.918;2023-03-14T00:24:44;5.05;;;1.98;;
13801;SDS011;6972;51.518;6.918;2023-03-14T00:27:10;9.00;;;2.10;;
13801;SDS011;6972;51.518;6.918;2023-03-14T00:29:36;11.40;;;2.08;;
13801;SDS011;6972;51.518;6.918;2023-03-14T00:32:02;6.93;;;1.92;;
13801;SDS011;6972;51.518;6.918;2023-03-14T00:34:29;9.00;;;1.90;;
13801;SDS011;6972;51.518;6.918;2023-03-14T00:36:55;8.82;;;2.45;;
13801;SDS011;6972;51.518;6.918;2023-03-14T00:39:21;5.38;;;2.28;;
13801;SDS011;6972;51.518;6.918;2023-03-14T00:41:47;8.68;;;2.00;;
13801;SDS011;6972;51.518;6.918;2023-03-14T00:44:12;7.57;;;2.63;;
13801;SDS011;6972;51.518;6.918;2023-03-14T00:46:40;5.15;;;2.03;;
13801;SDS011;6972;51.518;6.918;2023-03-14T00:49:05;11.43;;;2.10;;
13801;SDS011;6972;51.518;6.918;2023-03-14T00:51:31;18.00;;;2.55;;
13801;SDS011;6972;51.518;6.918;2023-03-14T00:53:57;6.00;;;2.17;;
13801;SDS011;6972;51.518;6.918;2023-03-14T00:56:23;5.38;;;2.25;;
13801;SDS011;6972;51.518;6.918;2023-03-14T00:58:52;9.65;;;2.08;;
13801;SDS011;6972;51.518;6.918;2023-03-14T01:01:19;5.15;;;1.63;;
13801;SDS011;6972;51.518;6.918;2023-03-14T01:03:46;5.55;;;1.80;;
13801;SDS011;6972;51.518;6.918;2023-03-14T01:06:16;4.85;;;1.65;;
13801;SDS011;6972;51.518;6.918;2023-03-14T01:08:44;8.02;;;2.15;;
13801;SDS011;6972;51.518;6.918;2023-03-14T01:11:15;7.82;;;1.52;;
13801;SDS011;6972;51.518;6.918;2023-03-14T01:13:44;6.65;;;1.73;;
13801;SDS011;6972;51.518;6.918;2023-03-14T01:16:10;8.00;;;2.03;;
13801;SDS011;6972;51.518;6.918;2023-03-14T01:18:37;8.52;;;2.17;;
13801;SDS011;6972;51.518;6.918;2023-03-14T01:21:09;7.35;;;1.50;;
13801;SDS011;6972;51.518;6.918;2023-03-14T01:26:16;8.55;;;2.33;;
13801;SDS011;6972;51.518;6.918;2023-03-14T01:28:44;8.13;;;1.98;;
13801;SDS011;6972;51.518;6.918;2023-03-14T01:31:11;8.68;;;2.38;;
13801;SDS011;6972;51.518;6.918;2023-03-14T01:33:37;5.25;;;1.80;;
13801;SDS011;6972;51.518;6.918;2023-03-14T01:36:03;7.75;;;2.10;;
13801;SDS011;6972;51.518;6.918;2023-03-14T01:38:33;5.15;;;1.98;;
13801;SDS011;6972;51.518;6.918;2023-03-14T01:41:00;5.68;;;2.40;;
13801;SDS011;6972;51.518;6.918;2023-03-14T01:43:27;8.60;;;1.98;;
13801;SDS011;6972;51.518;6.918;2023-03-14T01:56:39;11.80;;;2.08;;
13801;SDS011;6972;51.518;6.918;2023-03-14T01:59:08;6.00;;;1.65;;
13801;SDS011;6972;51.518;6.918;2023-03-14T02:01:35;5.03;;;2.05;;
13801;SDS011;6972;51.518;6.918;2023-03-14T02:04:03;7.40;;;2.10;;
13801;SDS011;6972;51.518;6.918;2023-03-14T02:06:35;6.47;;;1.90;;
13801;SDS011;6972;51.518;6.918;2023-03-14T02:09:30;7.57;;;1.83;;
13801;SDS011;6972;51.518;6.918;2023-03-14T02:11:56;5.95;;;1.52;;
13801;SDS011;6972;51.518;6.918;2023-03-14T02:14:28;6.45;;;1.67;;
13801;SDS011;6972;51.518;6.918;2023-03-14T02:16:56;7.72;;;2.22;;
13801;SDS011;6972;51.518;6.918;2023-03-14T02:19:26;5.07;;;1.63;;
13801;SDS011;6972;51.518;6.918;2023-03-14T02:22:05;8.35;;;2.17;;
13801;SDS011;6972;51.518;6.918;2023-03-14T02:24:45;6.20;;;1.75;;
13801;SDS011;6972;51.518;6.918;2023-03-14T02:27:16;6.10;;;1.95;;
13801;SDS011;6972;51.518;6.918;2023-03-14T02:29:54;7.25;;;1.85;;
13801;SDS011;6972;51.518;6.918;2023-03-14T02:32:29;9.57;;;2.05;;
13801;SDS011;6972;51.518;6.918;2023-03-14T02:34:58;8.65;;;1.98;;
13801;SDS011;6972;51.518;6.918;2023-03-14T02:37:31;12.32;;;2.55;;
13801;SDS011;6972;51.518;6.918;2023-03-14T02:40:03;8.30;;;2.03;;
13801;SDS011;6972;51.518;6.918;2023-03-14T02:42:30;6.97;;;1.67;;
13801;SDS011;6972;51.518;6.918;2023-03-14T02:45:01;10.35;;;2.45;;
13801;SDS011;6972;51.518;6.918;2023-03-14T02:47:47;6.70;;;1.83;;
13801;SDS011;6972;51.518;6.918;2023-03-14T02:50:20;16.67;;;2.25;;
13801;SDS011;6972;51.518;6.918;2023-03-14T02:52:49;7.93;;;1.80;;
13801;SDS011;6972;51.518;6.918;2023-03-14T02:55:19;8.35;;;2.10;;
13801;SDS011;6972;51.518;6.918;2023-03-14T02:57:45;11.43;;;2.03;;
13801;SDS011;6972;51.518;6.918;2023-03-14T03:00:12;9.57;;;2.17;;
13801;SDS011;6972;51.518;6.918;2023-03-14T03:02:38;9.68;;;2.17;;
13801;SDS011;6972;51.518;6.918;2023-03-14T03:05:03;6.78;;;2.00;;
13801;SDS011;6972;51.518;6.918;2023-03-14T03:07:29;13.25;;;2.20;;
13801;SDS011;6972;51.518;6.918;2023-03-14T03:09:55;5.97;;;1.95;;
13801;SDS011;6972;51.518;6.918;2023-03-14T03:12:21;7.38;;;2.25;;
13801;SDS011;6972;51.518;6.918;2023-03-14T03:14:47;8.85;;;1.80;;
13801;SDS011;6972;51.518;6.918;2023-03-14T03:17:16;4.35;;;1.50;;
13801;SDS011;6972;51.518;6.918;2023-03-14T03:19:45;11.27;;;1.83;;
13801;SDS011;6972;51.518;6.918;2023-03-14T03:22:10;5.38;;;1.70;;
13801;SDS011;6972;51.518;6.918;2023-03-14T03:27:02;10.93;;;2.42;;
13801;SDS011;6972;51.518;6.918;2023-03-14T03:29:27;8.48;;;1.90;;
13801;SDS011;6972;51.518;6.918;2023-03-14T03:31:53;5.68;;;1.85;;
13801;SDS011;6972;51.518;6.918;2023-03-14T03:34:19;6.43;;;1.88;;
13801;SDS011;6972;51.518;6.918;2023-03-14T03:36:45;9.13;;;2.03;;
13801;SDS011;6972;51.518;6.918;2023-03-14T03:39:11;10.95;;;1.85;;
13801;SDS011;6972;51.518;6.918;2023-03-14T03:41:37;6.75;;;1.85;;
13801;SDS011;6972;51.518;6.918;2023-03-14T03:44:03;6.75;;;1.65;;
13801;SDS011;6972;51.518;6.918;2023-03-14T03:46:30;11.60;;;2.22;;
13801;SDS011;6972;51.518;6.918;2023-03-14T03:48:57;9.13;;;2.08;;
13801;SDS011;6972;51.518;6.918;2023-03-14T03:51:24;9.15;;;2.28;;
13801;SDS011;6972;51.518;6.918;2023-03-14T03:53:50;9.40;;;1.70;;
13801;SDS011;6972;51.518;6.918;2023-03-14T03:56:16;16.00;;;2.55;;
13801;SDS011;6972;51.518;6.918;2023-03-14T03:58:41;8.43;;;2.28;;
13801;SDS011;6972;51.518;6.918;2023-03-14T04:01:10;6.78;;;2.03;;
13801;SDS011;6972;51.518;6.918;2023-03-14T04:03:36;7.78;;;1.90;;
13801;SDS011;6972;51.518;6.918;2023-03-14T04:06:07;13.63;;;2.38;;
13801;SDS011;6972;51.518;6.918;2023-03-14T04:08:34;7.40;;;1.88;;
13801;SDS011;6972;51.518;6.918;2023-03-14T04:11:00;6.88;;;1.80;;
13801;SDS011;6972;51.518;6.918;2023-03-14T04:13:27;7.78;;;2.28;;
13801;SDS011;6972;51.518;6.918;2023-03-14T04:15:54;5.65;;;1.90;;
13801;SDS011;6972;51.518;6.918;2023-03-14T04:18:21;7.53;;;1.95;;
13801;SDS011;6972;51.518;6.918;2023-03-14T04:20:51;9.57;;;2.22;;
13801;SDS011;6972;51.518;6.918;2023-03-14T04:23:18;10.00;;;2.08;;
13801;SDS011;6972;51.518;6.918;2023-03-14T04:25:43;8.07;;;2.03;;
13801;SDS011;6972;51.518;6.918;2023-03-14T04:28:09;8.85;;;2.33;;
13801;SDS011;6972;51.518;6.918;2023-03-14T04:35:47;8.40;;;2.13;;
13801;SDS011;6972;51.518;6.918;2023-03-14T04:38:15;4.85;;;1.65;;
13801;SDS011;6972;51.518;6.918;2023-03-14T04:40:41;5.28;;;1.73;;
13801;SDS011;6972;51.518;6.918;2023-03-14T04:43:10;8.88;;;1.80;;
13801;SDS011;6972;51.518;6.918;2023-03-14T04:45:37;6.63;;;2.08;;
13801;SDS011;6972;51.518;6.918;2023-03-14T04:48:05;5.68;;;1.75;;
13801;SDS011;6972;51.518;6.918;2023-03-14T04:50:31;3.35;;;1.60;;
13801;SDS011;6972;51.518;6.918;2023-03-14T04:53:00;5.38;;;1.50;;
13801;SDS011;6972;51.518;6.918;2023-03-14T04:58:04;6.90;;;1.90;;
13801;SDS011;6972;51.518;6.918;2023-03-14T05:00:30;5.68;;;1.60;;
13801;SDS011;6972;51.518;6.918;2023-03-14T05:02:56;3.13;;;1.30;;
13801;SDS011;6972;51.518;6.918;2023-03-14T05:07:48;6.63;;;1.40;;
13801;SDS011;6972;51.518;6.918;2023-03-14T05:10:14;5.10;;;1.60;;
13801;SDS011;6972;51.518;6.918;2023-03-14T05:12:40;4.80;;;1.33;;
13801;SDS011;6972;51.518;6.918;2023-03-14T05:15:06;5.93;;;1.70;;
13801;SDS011;6972;51.518;6.918;2023-03-14T05:17:32;4.07;;;1.40;;
13801;SDS011;6972;51.518;6.918;2023-03-14T05:19:58;4.03;;;1.40;;
13801;SDS011;6972;51.518;6.918;2023-03-14T05:22:24;5.82;;;2.38;;
13801;SDS011;6972;51.518;6.918;2023-03-14T05:24:50;6.70;;;1.80;;
13801;SDS011;6972;51.518;6.918;2023-03-14T05:27:16;4.05;;;1.75;;
13801;SDS011;6972;51.518;6.918;2023-03-14T05:29:44;4.95;;;1.60;;
13801;SDS011;6972;51.518;6.918;2023-03-14T05:32:12;6.87;;;1.80;;
13801;SDS011;6972;51.518;6.918;2023-03-14T05:34:38;5.57;;;1.70;;
13801;SDS011;6972;51.518;6.918;2023-03-14T05:37:04;2.80;;;1.70;;
13801;SDS011;6972;51.518;6.918;2023-03-14T05:39:30;5.43;;;1.95;;
13801;SDS011;6972;51.518;6.918;2023-03-14T05:41:56;3.57;;;1.43;;
13801;SDS011;6972;51.518;6.918;2023-03-14T05:44:22;2.63;;;1.45;;
13801;SDS011;6972;51.518;6.918;2023-03-14T06:02:15;10.83;;;3.17;;
13801;SDS011;6972;51.518;6.918;2023-03-14T06:07:06;7.85;;;3.03;;
13801;SDS011;6972;51.518;6.918;2023-03-14T06:09:33;7.78;;;2.80;;
13801;SDS011;6972;51.518;6.918;2023-03-14T06:11:58;6.43;;;2.50;;
13801;SDS011;6972;51.518;6.918;2023-03-14T06:16:55;3.45;;;1.98;;
13801;SDS011;6972;51.518;6.918;2023-03-14T06:19:21;3.00;;;1.70;;
13801;SDS011;6972;51.518;6.918;2023-03-14T06:21:48;3.35;;;1.58;;
13801;SDS011;6972;51.518;6.918;2023-03-14T06:24:14;3.20;;;1.35;;
13801;SDS011;6972;51.518;6.918;2023-03-14T06:29:15;4.15;;;1.60;;
13801;SDS011;6972;51.518;6.918;2023-03-14T06:34:16;3.30;;;1.40;;
13801;SDS011;6972;51.518;6.918;2023-03-14T06:50:12;5.15;;;1.63;;
13801;SDS011;6972;51.518;6.918;2023-03-14T06:52:39;3.08;;;2.22;;
13801;SDS011;6972;51.518;6.918;2023-03-14T07:02:57;4.35;;;2.28;;
13801;SDS011;6972;51.518;6.918;2023-03-14T07:05:23;3.83;;;2.28;;
13801;SDS011;6972;51.518;6.918;2023-03-14T07:07:49;4.05;;;2.22;;
13801;SDS011;6972;51.518;6.918;2023-03-14T07:16:26;6.07;;;3.00;;
13801;SDS011;6972;51.518;6.918;2023-03-14T07:18:56;8.05;;;3.33;;
13801;SDS011;6972;51.518;6.918;2023-03-14T07:21:22;5.03;;;3.00;;
13801;SDS011;6972;51.518;6.918;2023-03-14T07:23:48;5.80;;;3.03;;
13801;SDS011;6972;51.518;6.918;2023-03-14T07:26:14;5.72;;;3.10;;
13801;SDS011;6972;51.518;6.918;2023-03-14T07:28:40;3.20;;;2.58;;
13801;SDS011;6972;51.518;6.918;2023-03-14T07:34:29;3.28;;;2.63;;
13801;SDS011;6972;51.518;6.918;2023-03-14T07:46:15;8.10;;;2.28;;
13801;SDS011;6972;51.518;6.918;2023-03-14T07:48:50;4.25;;;1.98;;
13801;SDS011;6972;51.518;6.918;2023-03-14T07:51:16;4.40;;;2.40;;
13801;SDS011;6972;51.518;6.918;2023-03-14T07:57:18;5.63;;;2.53;;
13801;SDS011;6972;51.518;6.918;2023-03-14T08:08:31;5.78;;;3.08;;
13801;SDS011;6972;51.518;6.918;2023-03-14T08:27:20;4.85;;;2.50;;
13801;SDS011;6972;51.518;6.918;2023-03-14T08:35:46;5.88;;;2.35;;
13801;SDS011;6972;51.518;6.918;2023-03-14T08:38:12;4.47;;;2.55;;
13801;SDS011;6972;51.518;6.918;2023-03-14T08:40:37;5.40;;;3.15;;
13801;SDS011;6972;51.518;6.918;2023-03-14T08:43:03;5.90;;;3.20;;
13801;SDS011;6972;51.518;6.918;2023-03-14T08:45:30;7.47;;;3.33;;
13801;SDS011;6972;51.518;6.918;2023-03-14T08:48:01;3.97;;;3.08;;
13801;SDS011;6972;51.518;6.918;2023-03-14T08:50:35;5.93;;;3.10;;
13801;SDS011;6972;51.518;6.918;2023-03-14T08:59:45;3.33;;;2.13;;
13801;SDS011;6972;51.518;6.918;2023-03-14T09:02:11;6.70;;;2.53;;
13801;SDS011;6972;51.518;6.918;2023-03-14T09:04:37;2.95;;;1.92;;
13801;SDS011;6972;51.518;6.918;2023-03-14T09:07:06;2.95;;;1.92;;
13801;SDS011;6972;51.518;6.918;2023-03-14T09:09:32;6.03;;;2.38;;
13801;SDS011;6972;51.518;6.918;2023-03-14T09:11:59;3.35;;;2.20;;
13801;SDS011;6972;51.518;6.918;2023-03-14T09:14:26;4.55;;;1.77;;
13801;SDS011;6972;51.518;6.918;2023-03-14T09:16:52;6.32;;;1.80;;
13801;SDS011;6972;51.518;6.918;2023-03-14T09:22:11;1.38;;;0.90;;
13801;SDS011;6972;51.518;6.918;2023-03-14T09:24:37;2.03;;;0.80;;
13801;SDS011;6972;51.518;6.918;2023-03-14T09:27:04;0.80;;;0.80;;
13801;SDS011;6972;51.518;6.918;2023-03-14T09:29:41;5.23;;;0.90;;
13801;SDS011;6972;51.518;6.918;2023-03-14T09:32:06;1.40;;;0.70;;
13801;SDS011;6972;51.518;6.918;2023-03-14T09:34:33;0.77;;;0.77;;
13801;SDS011;6972;51.518;6.918;2023-03-14T09:36:59;1.27;;;0.70;;
13801;SDS011;6972;51.518;6.918;2023-03-14T09:39:25;2.60;;;0.93;;
13801;SDS011;6972;51.518;6.918;2023-03-14T09:42:02;1.07;;;0.97;;
13801;SDS011;6972;51.518;6.918;2023-03-14T09:44:33;1.53;;;1.07;;
13801;SDS011;6972;51.518;6.918;2023-03-14T09:47:04;3.80;;;1.53;;
13801;SDS011;6972;51.518;6.918;2023-03-14T09:49:39;1.43;;;1.03;;
13801;SDS011;6972;51.518;6.918;2023-03-14T09:52:17;2.00;;;1.10;;
13801;SDS011;6972;51.518;6.918;2023-03-14T09:54:48;2.20;;;1.40;;
13801;SDS011;6972;51.518;6.918;2023-03-14T09:59:52;3.77;;;1.40;;
13801;SDS011;6972;51.518;6.918;2023-03-14T10:02:33;1.90;;;1.40;;
13801;SDS011;6972;51.518;6.918;2023-03-14T10:08:27;3.57;;;1.57;;
13801;SDS011;6972;51.518;6.918;2023-03-14T10:13:20;2.80;;;1.77;;
13801;SDS011;6972;51.518;6.918;2023-03-14T10:16:01;4.30;;;1.73;;
13801;SDS011;6972;51.518;6.918;2023-03-14T10:18:36;3.10;;;1.73;;
13801;SDS011;6972;51.518;6.918;2023-03-14T10:24:17;3.50;;;1.70;;
13801;SDS011;6972;51.518;6.918;2023-03-14T10:26:43;2.53;;;1.63;;
13801;SDS011;6972;51.518;6.918;2023-03-14T10:29:36;6.23;;;1.50;;
13801;SDS011;6972;51.518;6.918;2023-03-14T10:37:58;3.50;;;1.13;;
13801;SDS011;6972;51.518;6.918;2023-03-14T10:40:40;3.47;;;1.30;;
13801;SDS011;6972;51.518;6.918;2023-03-14T10:49:46;3.27;;;1.23;;
13801;SDS011;6972;51.518;6.918;2023-03-14T10:52:19;2.70;;;1.30;;
13801;SDS011;6972;51.518;6.918;2023-03-14T10:57:43;4.10;;;1.23;;
13801;SDS011;6972;51.518;6.918;2023-03-14T11:00:14;4.93;;;1.07;;
13801;SDS011;6972;51.518;6.918;2023-03-14T11:08:23;4.13;;;1.57;;
13801;SDS011;6972;51.518;6.918;2023-03-14T11:14:20;1.73;;;0.90;;
13801;SDS011;6972;51.518;6.918;2023-03-14T11:31:26;2.00;;;0.73;;
13801;SDS011;6972;51.518;6.918;2023-03-14T11:34:06;2.57;;;1.10;;
13801;SDS011;6972;51.518;6.918;2023-03-14T11:36:41;4.17;;;1.17;;
13801;SDS011;6972;51.518;6.918;2023-03-14T11:39:17;4.43;;;1.33;;
13801;SDS011;6972;51.518;6.918;2023-03-14T11:41:51;5.97;;;1.17;;
13801;SDS011;6972;51.518;6.918;2023-03-14T11:44:20;2.27;;;0.93;;
13801;SDS011;6972;51.518;6.918;2023-03-14T11:47:25;5.23;;;1.50;;
13801;SDS011;6972;51.518;6.918;2023-03-14T11:55:33;4.60;;;1.23;;
13801;SDS011;6972;51.518;6.918;2023-03-14T12:01:02;5.57;;;1.43;;
13801;SDS011;6972;51.518;6.918;2023-03-14T12:04:10;6.20;;;1.10;;
13801;SDS011;6972;51.518;6.918;2023-03-14T12:12:39;4.73;;;1.57;;
13801;SDS011;6972;51.518;6.918;2023-03-14T12:15:21;3.57;;;1.30;;
13801;SDS011;6972;51.518;6.918;2023-03-14T12:42:51;6.37;;;1.40;;
13801;SDS011;6972;51.518;6.918;2023-03-14T12:59:27;12.50;;;2.53;;
13801;SDS011;6972;51.518;6.918;2023-03-14T13:53:44;22.80;;;3.40;;
13801;SDS011;6972;51.518;6.918;2023-03-14T15:31:46;7.27;;;1.73;;
13801;SDS011;6972;51.518;6.918;2023-03-14T16:12:38;5.77;;;1.83;;
13801;SDS011;6972;51.518;6.918;2023-03-14T16:21:12;6.70;;;1.77;;
13801;SDS011;6972;51.518;6.918;2023-03-14T16:27:05;7.37;;;1.80;;
13801;SDS011;6972;51.518;6.918;2023-03-14T16:32:27;7.13;;;1.50;;
13801;SDS011;6972;51.518;6.918;2023-03-14T16:34:58;6.43;;;1.60;;
13801;SDS011;6972;51.518;6.918;2023-03-14T16:42:54;6.93;;;1.57;;
13801;SDS011;6972;51.518;6.918;2023-03-14T16:48:11;9.30;;;1.90;;
13801;SDS011;6972;51.518;6.918;2023-03-14T17:09:46;3.50;;;1.17;;
13801;SDS011;6972;51.518;6.918;2023-03-14T17:40:46;6.53;;;1.63;;
13801;SDS011;6972;51.518;6.918;2023-03-14T17:58:47;8.20;;;2.40;;
13801;SDS011;6972;51.518;6.918;2023-03-14T18:01:22;6.67;;;1.90;;
13801;SDS011;6972;51.518;6.918;2023-03-14T18:03:51;8.93;;;2.27;;
13801;SDS011;6972;51.518;6.918;2023-03-14T18:06:30;6.80;;;2.00;;
13801;SDS011;6972;51.518;6.918;2023-03-14T18:14:08;7.50;;;1.90;;
13801;SDS011;6972;51.518;6.918;2023-03-14T18:19:10;7.67;;;2.10;;
13801;SDS011;6972;51.518;6.918;2023-03-14T18:21:37;10.73;;;2.37;;
13801;SDS011;6972;51.518;6.918;2023-03-14T18:24:04;7.73;;;2.47;;
13801;SDS011;6972;51.518;6.918;2023-03-14T18:26:30;9.80;;;2.50;;
13801;SDS011;6972;51.518;6.918;2023-03-14T18:47:06;10.90;;;2.70;;
13801;SDS011;6972;51.518;6.918;2023-03-14T18:49:34;10.03;;;2.40;;
13801;SDS011;6972;51.518;6.918;2023-03-14T18:52:00;13.43;;;2.70;;
13801;SDS011;6972;51.518;6.918;2023-03-14T19:04:49;14.67;;;2.67;;
13801;SDS011;6972;51.518;6.918;2023-03-14T19:09:51;20.87;;;2.97;;
13801;SDS011;6972;51.518;6.918;2023-03-14T19:12:17;11.80;;;2.73;;
13801;SDS011;6972;51.518;6.918;2023-03-14T19:14:46;8.70;;;2.20;;
13801;SDS011;6972;51.518;6.918;2023-03-14T19:17:12;7.53;;;2.43;;
13801;SDS011;6972;51.518;6.918;2023-03-14T19:19:38;8.33;;;2.00;;
13801;SDS011;6972;51.518;6.918;2023-03-14T19:22:04;10.93;;;2.47;;
13801;SDS011;6972;51.518;6.918;2023-03-14T19:24:30;7.67;;;2.33;;
13801;SDS011;6972;51.518;6.918;2023-03-14T19:26:58;10.80;;;3.23;;
13801;SDS011;6972;51.518;6.918;2023-03-14T19:34:36;9.80;;;2.43;;
13801;SDS011;6972;51.518;6.918;2023-03-14T19:37:02;7.67;;;2.30;;
13801;SDS011;6972;51.518;6.918;2023-03-14T19:39:28;9.90;;;2.77;;
13801;SDS011;6972;51.518;6.918;2023-03-14T19:42:00;8.93;;;2.53;;
13801;SDS011;6972;51.518;6.918;2023-03-14T20:15:24;11.00;;;2.00;;
13801;SDS011;6972;51.518;6.918;2023-03-14T20:29:32;8.77;;;2.20;;
13801;SDS011;6972;51.518;6.918;2023-03-14T20:44:57;8.87;;;1.90;;
13801;SDS011;6972;51.518;6.918;2023-03-14T20:47:23;9.67;;;2.30;;
13801;SDS011;6972;51.518;6.918;2023-03-14T20:52:24;11.20;;;2.53;;
13801;SDS011;6972;51.518;6.918;2023-03-14T20:54:50;11.80;;;2.90;;
13801;SDS011;6972;51.518;6.918;2023-03-14T21:04:56;10.57;;;2.07;;
13801;SDS011;6972;51.518;6.918;2023-03-14T21:07:22;18.73;;;2.50;;
13801;SDS011;6972;51.518;6.918;2023-03-14T21:17:40;11.67;;;2.37;;
13801;SDS011;6972;51.518;6.918;2023-03-14T21:20:12;17.47;;;2.50;;
13801;SDS011;6972;51.518;6.918;2023-03-14T21:30:23;11.67;;;2.50;;
13801;SDS011;6972;51.518;6.918;2023-03-14T21:32:53;8.23;;;2.67;;
13801;SDS011;6972;51.518;6.918;2023-03-14T21:40:38;18.03;;;3.00;;
13801;SDS011;6972;51.518;6.918;2023-03-14T21:43:04;21.73;;;2.90;;
13801;SDS011;6972;51.518;6.918;2023-03-14T21:45:30;15.00;;;3.23;;
13801;SDS011;6972;51.518;6.918;2023-03-14T22:00:50;13.83;;;2.70;;
13801;SDS011;6972;51.518;6.918;2023-03-14T22:03:17;15.30;;;2.60;;
13801;SDS011;6972;51.518;6.918;2023-03-14T22:05:44;7.50;;;2.23;;
13801;SDS011;6972;51.518;6.918;2023-03-14T22:33:18;15.13;;;3.27;;
13801;SDS011;6972;51.518;6.918;2023-03-14T22:38:18;11.77;;;2.80;;
13801;SDS011;6972;51.518;6.918;2023-03-14T22:51:53;16.43;;;3.00;;
13801;SDS011;6972;51.518;6.918;2023-03-14T22:54:19;16.33;;;2.83;;
13801;SDS011;6972;51.518;6.918;2023-03-14T22:56:45;12.13;;;3.13;;
13801;SDS011;6972;51.518;6.918;2023-03-14T22:59:11;13.93;;;2.93;;
13801;SDS011;6972;51.518;6.918;2023-03-14T23:01:38;14.77;;;3.63;;
13801;SDS011;6972;51.518;6.918;2023-03-14T23:04:04;14.27;;;2.87;;
13801;SDS011;6972;51.518;6.918;2023-03-14T23:06:30;12.57;;;2.63;;
13801;SDS011;6972;51.518;6.918;2023-03-14T23:08:59;15.10;;;3.30;;
13801;SDS011;6972;51.518;6.918;2023-03-14T23:11:26;11.37;;;2.63;;
13801;SDS011;6972;51.518;6.918;2023-03-14T23:13:52;14.23;;;2.90;;
13801;SDS011;6972;51.518;6.918;2023-03-14T23:43:46;12.37;;;2.67;;
13801;SDS011;6972;51.518;6.918;2023-03-14T23:59:15;11.73;;;2.70;;
